Time;durP1;ratioP1;P1;durP2;ratioP2;P2;SDS_P1;SDS_P2;PMS_P1;PMS_P2;Temp;Humidity;BMP_temperature;BMP_pressure;BME280_temperature;BME280_humidity;BME280_pressure;Samples;Min_cycle;Max_cycle;Signal;HPM_P1;HPM_P2
2021/04/30 00:00:06;;;;;;;14.95;9.65;;;;;;;8.10;100.00;95181.03;1023036;29;20027;-69
2021/04/30 00:00:37;;;;;;;11.75;9.63;;;;;;;8.12;100.00;95173.75;1012921;29;20080;-69
2021/04/30 00:01:07;;;;;;;14.73;9.98;;;;;;;8.13;100.00;95177.91;1011328;29;20332;-68
2021/04/30 00:01:38;;;;;;;10.68;8.73;;;;;;;8.16;100.00;95174.78;1015485;29;20044;-69
2021/04/30 00:02:08;;;;;;;13.02;9.70;;;;;;;8.16;100.00;95177.38;1018822;29;20394;-69
2021/04/30 00:02:41;;;;;;;16.52;9.80;;;;;;;8.18;100.00;95177.94;1018865;29;20042;-68
2021/04/30 00:03:11;;;;;;;13.25;9.75;;;;;;;8.16;100.00;95172.16;1020873;28;20031;-68
2021/04/30 00:03:42;;;;;;;11.65;8.38;;;;;;;8.20;100.00;95177.66;1031273;28;20266;-68
2021/04/30 00:04:12;;;;;;;11.48;8.70;;;;;;;8.22;100.00;95173.75;1027926;28;20476;-68
2021/04/30 00:04:42;;;;;;;12.13;9.25;;;;;;;8.19;100.00;95176.88;1030831;28;20034;-69
2021/04/30 00:05:13;;;;;;;14.20;9.80;;;;;;;8.21;100.00;95174.75;1022660;29;20030;-69
2021/04/30 00:05:44;;;;;;;11.32;9.35;;;;;;;8.23;100.00;95185.75;1023677;28;20031;-69
2021/04/30 00:06:14;;;;;;;13.05;9.68;;;;;;;8.18;100.00;95170.09;1023235;29;20030;-68
2021/04/30 00:06:45;;;;;;;15.07;10.25;;;;;;;8.23;100.00;95177.91;1023309;28;20094;-69
2021/04/30 00:07:16;;;;;;;13.48;9.85;;;;;;;8.23;100.00;95174.53;1027389;28;20044;-68
2021/04/30 00:07:46;;;;;;;14.18;9.48;;;;;;;8.25;100.00;95183.69;1021191;29;20263;-68
2021/04/30 00:08:17;;;;;;;12.23;9.02;;;;;;;8.26;100.00;95180.00;1026142;28;20085;-68
2021/04/30 00:08:47;;;;;;;10.43;8.85;;;;;;;8.25;100.00;95170.59;1027763;28;20539;-70
2021/04/30 00:09:18;;;;;;;11.43;9.30;;;;;;;8.28;100.00;95177.13;1027024;28;20030;-69
2021/04/30 00:09:48;;;;;;;12.27;9.27;;;;;;;8.30;100.00;95182.09;1027511;28;20404;-68
2021/04/30 00:10:18;;;;;;;13.05;9.75;;;;;;;8.29;100.00;95173.47;1023382;29;20039;-68
2021/04/30 00:10:49;;;;;;;11.88;8.13;;;;;;;8.32;100.00;95177.41;1023395;28;20071;-69
2021/04/30 00:11:19;;;;;;;12.63;8.48;;;;;;;8.31;100.00;95179.22;1027574;28;20029;-68
2021/04/30 00:11:50;;;;;;;13.02;9.55;;;;;;;8.24;100.00;95165.63;1023122;28;20043;-68
2021/04/30 00:12:20;;;;;;;11.57;9.10;;;;;;;8.25;100.00;95164.59;1023592;29;20517;-68
2021/04/30 00:12:51;;;;;;;13.95;9.10;;;;;;;8.33;100.00;95184.19;1019213;29;20092;-68
2021/04/30 00:13:21;;;;;;;16.00;9.77;;;;;;;8.29;100.00;95175.31;1019417;29;20020;-69
2021/04/30 00:13:52;;;;;;;13.88;9.70;;;;;;;8.31;100.00;95175.81;1023765;28;20019;-69
2021/04/30 00:14:22;;;;;;;12.93;9.52;;;;;;;8.30;100.00;95175.03;1027149;28;20074;-68
2021/04/30 00:14:53;;;;;;;11.07;9.82;;;;;;;8.29;100.00;95175.31;1023219;29;20026;-68
2021/04/30 00:15:23;;;;;;;11.73;9.23;;;;;;;8.31;100.00;95178.44;1022982;28;20027;-69
2021/04/30 00:15:54;;;;;;;17.55;9.80;;;;;;;8.32;100.00;95177.41;1027357;28;20046;-68
2021/04/30 00:16:24;;;;;;;16.42;10.07;;;;;;;8.32;100.00;95180.03;1023915;28;20598;-68
2021/04/30 00:16:55;;;;;;;13.98;9.52;;;;;;;8.31;100.00;95175.81;1026843;28;20424;-68
2021/04/30 00:17:25;;;;;;;12.73;9.82;;;;;;;8.32;100.00;95174.78;1027458;28;20073;-69
2021/04/30 00:17:56;;;;;;;16.38;10.23;;;;;;;8.32;100.00;95172.19;1023124;29;20046;-68
2021/04/30 00:18:26;;;;;;;16.15;9.40;;;;;;;8.33;100.00;95174.53;1023237;28;20038;-69
2021/04/30 00:18:57;;;;;;;12.70;9.52;;;;;;;8.32;100.00;95178.19;1031396;28;20034;-68
2021/04/30 00:19:27;;;;;;;14.13;10.05;;;;;;;8.32;100.00;95174.78;1031293;28;20042;-70
2021/04/30 00:19:58;;;;;;;15.88;10.13;;;;;;;8.30;100.00;95176.88;1032278;28;20656;-69
2021/04/30 00:20:29;;;;;;;11.05;9.02;;;;;;;8.30;100.00;95169.03;1035134;28;20054;-69
2021/04/30 00:21:00;;;;;;;12.77;9.35;;;;;;;8.34;100.00;95175.31;1023432;29;20091;-69
2021/04/30 00:21:31;;;;;;;9.80;8.80;;;;;;;8.34;100.00;95176.06;1023221;29;20028;-69
2021/04/30 00:22:01;;;;;;;12.55;8.73;;;;;;;8.34;100.00;95175.31;1023689;29;20275;-70
2021/04/30 00:22:32;;;;;;;12.23;9.43;;;;;;;8.27;100.00;95165.88;1027727;28;20042;-68
2021/04/30 00:23:03;;;;;;;11.80;9.13;;;;;;;8.35;100.00;95176.84;1025472;28;20455;-68
2021/04/30 00:23:34;;;;;;;13.48;9.35;;;;;;;8.35;100.00;95174.25;1024172;28;20123;-68
2021/04/30 00:24:05;;;;;;;12.73;8.65;;;;;;;8.27;100.00;95165.88;1027283;28;20371;-68
2021/04/30 00:24:36;;;;;;;12.07;9.00;;;;;;;8.34;100.00;95170.06;1023186;28;20278;-69
2021/04/30 00:25:07;;;;;;;12.48;8.60;;;;;;;8.36;100.00;95173.22;1023155;28;20282;-69
2021/04/30 00:25:40;;;;;;;10.00;8.68;;;;;;;8.36;100.00;95173.22;1023224;29;20386;-69
2021/04/30 00:26:11;;;;;;;12.98;9.35;;;;;;;8.37;100.00;95180.00;1019680;29;20506;-68
2021/04/30 00:26:41;;;;;;;12.70;8.88;;;;;;;8.36;100.00;95174.00;1019370;29;20271;-68
2021/04/30 00:27:12;;;;;;;12.70;8.35;;;;;;;8.37;100.00;95172.94;1019717;29;20647;-69
2021/04/30 00:27:42;;;;;;;10.77;8.27;;;;;;;8.37;100.00;95167.72;1019845;29;20032;-69
2021/04/30 00:28:13;;;;;;;13.80;9.50;;;;;;;8.37;100.00;95166.94;1024958;28;20030;-68
2021/04/30 00:28:43;;;;;;;12.07;8.82;;;;;;;8.37;100.00;95166.94;1022582;28;20536;-70
2021/04/30 00:29:14;;;;;;;14.43;9.35;;;;;;;8.37;100.00;95172.16;1027454;28;20489;-69
2021/04/30 00:29:44;;;;;;;10.75;8.68;;;;;;;8.36;100.00;95170.59;1030004;28;20038;-68
2021/04/30 00:30:15;;;;;;;11.77;9.07;;;;;;;8.38;100.00;95176.38;1026365;28;20046;-69
2021/04/30 00:30:45;;;;;;;11.00;9.45;;;;;;;8.39;100.00;95173.50;1027623;28;20035;-67
2021/04/30 00:31:18;;;;;;;13.55;9.90;;;;;;;8.29;100.00;95157.03;1027482;28;20033;-69
2021/04/30 00:31:48;;;;;;;12.05;9.20;;;;;;;8.39;100.00;95167.50;1027133;28;20030;-68
2021/04/30 00:32:19;;;;;;;16.00;9.50;;;;;;;8.37;100.00;95167.72;1027257;28;20790;-68
2021/04/30 00:32:49;;;;;;;13.45;9.43;;;;;;;8.36;100.00;95168.78;1027539;28;20516;-67
2021/04/30 00:33:21;;;;;;;12.20;9.98;;;;;;;8.33;100.00;95163.28;1016319;29;20091;-68
2021/04/30 00:33:51;;;;;;;11.68;8.32;;;;;;;8.35;100.00;95163.78;1015544;29;20028;-67
2021/04/30 00:34:21;;;;;;;12.00;8.95;;;;;;;8.36;100.00;95168.78;1011703;29;20308;-68
2021/04/30 00:34:52;;;;;;;11.25;8.77;;;;;;;8.35;100.00;95166.41;1011439;29;20423;-69
2021/04/30 00:35:22;;;;;;;10.82;9.32;;;;;;;8.35;100.00;95166.41;1022429;29;20486;-69
2021/04/30 00:35:53;;;;;;;12.88;9.35;;;;;;;8.35;100.00;95171.63;1023651;28;20146;-69
2021/04/30 00:36:24;;;;;;;10.88;8.40;;;;;;;8.36;100.00;95170.59;1027323;28;20030;-69
2021/04/30 00:36:54;;;;;;;11.68;8.95;;;;;;;8.24;100.00;95155.16;1019149;29;20051;-68
2021/04/30 00:37:24;;;;;;;12.98;9.63;;;;;;;8.35;100.00;95166.41;1015490;29;20028;-69
2021/04/30 00:37:55;;;;;;;16.63;9.77;;;;;;;8.35;100.00;95166.41;1015370;29;20551;-68
2021/04/30 00:38:25;;;;;;;11.23;9.70;;;;;;;8.33;100.00;95160.66;1013159;29;20422;-68
2021/04/30 00:38:56;;;;;;;11.63;9.18;;;;;;;8.31;100.00;95165.38;1022378;28;20024;-68
2021/04/30 00:39:26;;;;;;;9.95;8.90;;;;;;;8.30;100.00;95171.66;1023435;28;20034;-68
2021/04/30 00:39:57;;;;;;;12.15;8.98;;;;;;;8.31;100.00;95166.16;1027468;28;20031;-69
2021/04/30 00:40:27;;;;;;;12.10;9.00;;;;;;;8.32;100.00;95177.41;1026169;28;20038;-69
2021/04/30 00:40:58;;;;;;;12.07;9.57;;;;;;;8.31;100.00;95168.75;1027624;28;20058;-69
2021/04/30 00:41:28;;;;;;;11.40;8.73;;;;;;;8.23;100.00;95161.44;1027455;28;20035;-68
2021/04/30 00:41:59;;;;;;;12.68;9.57;;;;;;;8.31;100.00;95175.81;1030299;28;20399;-69
2021/04/30 00:42:29;;;;;;;12.70;9.55;;;;;;;8.30;100.00;95176.88;1031976;28;20039;-68
2021/04/30 00:43:00;;;;;;;13.18;9.60;;;;;;;8.29;100.00;95178.72;1031542;28;20566;-68
2021/04/30 00:43:30;;;;;;;15.75;9.27;;;;;;;8.29;100.00;95176.09;1028705;28;20096;-69
2021/04/30 00:44:07;;;;;;;12.73;9.10;;;;;;;8.30;100.00;95177.66;1030562;28;20030;-69
2021/04/30 00:44:39;;;;;;;10.35;8.95;;;;;;;8.30;100.00;95179.50;1036520;28;20022;-68
2021/04/30 00:45:17;;;;;;;11.05;8.43;;;;;;;8.29;100.00;95177.94;1038670;28;20307;-69
2021/04/30 00:45:52;;;;;;;13.38;9.32;;;;;;;8.27;100.00;95170.34;1029327;28;20269;-69
2021/04/30 00:46:23;;;;;;;12.98;8.50;;;;;;;8.31;100.00;95179.22;1029618;28;20268;-68
2021/04/30 00:46:53;;;;;;;12.63;9.65;;;;;;;8.27;100.00;95176.34;1029278;28;20316;-68
2021/04/30 00:47:33;;;;;;;11.13;8.65;;;;;;;8.33;100.00;95181.59;1025879;28;20027;-68
2021/04/30 00:48:04;;;;;;;14.35;8.75;;;;;;;8.29;100.00;95173.47;1015879;29;21131;-68
2021/04/30 00:48:35;;;;;;;16.05;9.25;;;;;;;8.27;100.00;95173.72;1019133;29;20031;-69
2021/04/30 00:49:05;;;;;;;11.38;9.43;;;;;;;8.33;100.00;95181.59;1028800;28;20066;-68
2021/04/30 00:49:36;;;;;;;11.32;9.93;;;;;;;8.33;100.00;95178.97;1028010;28;20417;-68
2021/04/30 00:50:08;;;;;;;10.25;9.13;;;;;;;8.30;100.00;95179.50;1035546;28;20061;-69
2021/04/30 00:50:38;;;;;;;12.52;9.15;;;;;;;8.33;100.00;95190.19;1025498;28;20030;-69
2021/04/30 00:51:09;;;;;;;13.60;9.23;;;;;;;8.32;100.00;95183.41;1019486;29;20263;-69
2021/04/30 00:51:40;;;;;;;12.45;8.90;;;;;;;8.33;100.00;95187.59;1019783;29;20024;-67
2021/04/30 00:52:10;;;;;;;12.10;9.77;;;;;;;8.33;100.00;95181.59;1018116;29;20024;-69
2021/04/30 00:52:41;;;;;;;11.15;8.65;;;;;;;8.32;100.00;95188.66;1027666;28;20034;-68
2021/04/30 00:53:12;;;;;;;12.07;8.95;;;;;;;8.34;100.00;95190.97;1027445;28;20779;-69
2021/04/30 00:53:42;;;;;;;15.63;9.55;;;;;;;8.33;100.00;95190.19;1021390;29;20327;-68
2021/04/30 00:54:13;;;;;;;11.07;8.82;;;;;;;8.33;100.00;95190.19;1023175;29;20421;-69
2021/04/30 00:54:43;;;;;;;11.18;9.15;;;;;;;8.33;100.00;95195.44;1015982;29;20036;-69
2021/04/30 00:55:15;;;;;;;13.10;9.65;;;;;;;8.33;100.00;95194.66;1018227;29;20091;-69
2021/04/30 00:55:45;;;;;;;12.73;8.93;;;;;;;8.32;100.00;95193.88;1026953;28;20472;-68
2021/04/30 00:56:16;;;;;;;11.73;8.85;;;;;;;8.35;100.00;95195.16;1030468;28;20277;-68
2021/04/30 00:56:46;;;;;;;12.25;9.30;;;;;;;8.34;100.00;95197.00;1031691;28;20392;-68
2021/04/30 00:57:17;;;;;;;12.35;9.45;;;;;;;8.32;100.00;95193.88;1015164;29;20076;-68
2021/04/30 00:57:48;;;;;;;11.40;9.00;;;;;;;8.34;100.00;95196.22;1011790;29;20032;-70
2021/04/30 00:58:19;;;;;;;12.50;9.52;;;;;;;8.33;100.00;95192.03;1019564;29;20024;-69
2021/04/30 00:58:49;;;;;;;19.50;10.05;;;;;;;8.34;100.00;95190.97;1015709;29;20260;-69
2021/04/30 00:59:20;;;;;;;12.43;8.55;;;;;;;8.35;100.00;95197.78;1022436;29;20023;-69
2021/04/30 00:59:50;;;;;;;14.73;9.68;;;;;;;8.35;100.00;95195.16;1019495;29;20020;-65
2021/04/30 01:00:21;;;;;;;14.07;9.45;;;;;;;8.34;100.00;95199.59;1012106;29;20035;-69
2021/04/30 01:00:52;;;;;;;12.73;9.20;;;;;;;8.36;100.00;95194.13;1023159;29;20026;-68
2021/04/30 01:01:22;;;;;;;13.27;10.38;;;;;;;8.35;100.00;95203.00;1027161;28;20290;-68
2021/04/30 01:01:53;;;;;;;12.20;9.90;;;;;;;8.37;100.00;95195.69;1027697;28;20018;-69
2021/04/30 01:02:23;;;;;;;21.70;10.65;;;;;;;8.33;100.00;95190.19;1027577;28;20026;-69
2021/04/30 01:02:54;;;;;;;16.38;9.82;;;;;;;8.37;100.00;95195.69;1023136;29;20515;-68
2021/04/30 01:03:24;;;;;;;12.68;10.05;;;;;;;8.34;100.00;95193.59;1027152;28;20145;-68
2021/04/30 01:03:55;;;;;;;17.58;10.27;;;;;;;8.26;100.00;95185.22;1027387;28;20089;-68
2021/04/30 01:04:25;;;;;;;11.95;9.50;;;;;;;8.34;100.00;95193.59;1019869;29;20023;-68
2021/04/30 01:04:57;;;;;;;10.75;8.82;;;;;;;8.36;100.00;95188.91;1026174;28;20026;-68
2021/04/30 01:05:28;;;;;;;13.43;9.18;;;;;;;8.31;100.00;95181.03;1022620;29;20129;-68
2021/04/30 01:05:58;;;;;;;11.48;8.90;;;;;;;8.35;100.00;95192.53;1016123;29;20789;-68
2021/04/30 01:06:31;;;;;;;12.38;9.40;;;;;;;8.33;100.00;95190.19;1018596;29;20473;-69
2021/04/30 01:07:02;;;;;;;12.20;9.00;;;;;;;8.33;100.00;95189.41;1016281;29;20103;-68
2021/04/30 01:07:32;;;;;;;12.95;8.90;;;;;;;8.32;100.00;95190.47;1015878;29;20276;-68
2021/04/30 01:08:03;;;;;;;13.52;9.38;;;;;;;8.31;100.00;95196.72;1023360;29;20022;-68
2021/04/30 01:08:34;;;;;;;14.77;9.88;;;;;;;8.31;100.00;95196.72;1023678;28;20075;-68
2021/04/30 01:09:05;;;;;;;12.73;9.75;;;;;;;8.33;100.00;95198.03;1023847;28;20333;-68
2021/04/30 01:09:35;;;;;;;17.10;10.55;;;;;;;8.32;100.00;95200.94;1030881;28;20018;-69
2021/04/30 01:10:06;;;;;;;12.95;9.80;;;;;;;8.31;100.00;95202.75;1031825;28;20257;-67
2021/04/30 01:10:36;;;;;;;14.65;9.90;;;;;;;8.32;100.00;95203.53;1031118;28;20065;-68
2021/04/30 01:11:07;;;;;;;13.82;9.75;;;;;;;8.33;100.00;95205.88;1025959;28;20026;-70
2021/04/30 01:11:37;;;;;;;15.32;10.35;;;;;;;8.35;100.00;95203.81;1023333;29;20031;-68
2021/04/30 01:12:09;;;;;;;15.45;9.57;;;;;;;8.35;100.00;95201.19;1019437;29;20023;-68
2021/04/30 01:12:39;;;;;;;15.00;10.25;;;;;;;8.32;100.00;95206.94;1019143;29;20063;-68
2021/04/30 01:13:12;;;;;;;14.07;9.73;;;;;;;8.36;100.00;95212.44;1019940;29;20271;-69
2021/04/30 01:13:43;;;;;;;16.00;10.00;;;;;;;8.34;100.00;95206.66;1019578;29;20024;-68
2021/04/30 01:14:13;;;;;;;11.30;9.52;;;;;;;8.33;100.00;95199.88;1008338;29;20277;-70
2021/04/30 01:14:44;;;;;;;14.90;10.07;;;;;;;8.34;100.00;95211.91;1011500;29;20072;-69
2021/04/30 01:15:15;;;;;;;17.08;9.80;;;;;;;8.35;100.00;95206.41;1022756;29;20019;-68
2021/04/30 01:15:46;;;;;;;12.75;9.90;;;;;;;8.35;100.00;95208.22;1024092;28;20251;-68
2021/04/30 01:16:16;;;;;;;15.75;10.48;;;;;;;8.34;100.00;95207.44;1025208;28;20755;-69
2021/04/30 01:16:47;;;;;;;16.77;10.80;;;;;;;8.37;100.00;95211.38;1027252;28;20062;-69
2021/04/30 01:17:17;;;;;;;13.55;10.38;;;;;;;8.37;100.00;95203.53;1023377;29;20390;-69
2021/04/30 01:17:48;;;;;;;14.18;10.88;;;;;;;8.36;100.00;95204.59;1022904;28;20015;-68
2021/04/30 01:18:18;;;;;;;15.73;10.43;;;;;;;8.35;100.00;95209.03;1032902;28;20488;-67
2021/04/30 01:18:49;;;;;;;12.43;10.00;;;;;;;8.37;100.00;95206.16;1031205;28;20038;-68
2021/04/30 01:19:22;;;;;;;13.40;10.35;;;;;;;8.36;100.00;95205.38;1031618;28;20027;-69
2021/04/30 01:19:55;;;;;;;17.35;10.70;;;;;;;8.36;100.00;95204.59;1022262;29;20035;-68
2021/04/30 01:20:26;;;;;;;13.43;10.63;;;;;;;8.30;100.00;95195.16;1019381;29;20705;-69
2021/04/30 01:20:56;;;;;;;18.65;11.27;;;;;;;8.35;100.00;95208.22;1022547;28;20298;-68
2021/04/30 01:21:27;;;;;;;16.38;11.38;;;;;;;8.27;100.00;95194.63;1023452;28;20036;-68
2021/04/30 01:21:58;;;;;;;14.07;10.55;;;;;;;8.36;100.00;95201.97;1019539;29;20102;-69
2021/04/30 01:22:51;;;;;;;13.45;10.35;;;;;;;8.31;100.00;95194.91;1019457;29;20031;-68
2021/04/30 01:23:21;;;;;;;15.50;10.93;;;;;;;8.29;100.00;95202.22;1014462;29;20275;-69
2021/04/30 01:23:53;;;;;;;14.18;10.95;;;;;;;8.32;100.00;95208.78;1021767;29;20761;-69
2021/04/30 01:24:24;;;;;;;14.68;11.98;;;;;;;8.30;100.00;95201.19;1026699;28;20026;-69
2021/04/30 01:24:54;;;;;;;13.20;11.38;;;;;;;8.31;100.00;95207.19;1021252;29;20359;-68
2021/04/30 01:25:31;;;;;;;26.85;11.95;;;;;;;8.25;100.00;95204.59;1026185;28;20023;-68
2021/04/30 01:26:02;;;;;;;15.52;12.13;;;;;;;8.30;100.00;95205.63;1023543;29;20026;-69
2021/04/30 01:26:32;;;;;;;14.95;11.57;;;;;;;8.32;100.00;95206.94;1021935;29;20274;-68
2021/04/30 01:27:03;;;;;;;14.75;11.30;;;;;;;8.31;100.00;95209.78;1030160;28;20018;-68
2021/04/30 01:27:33;;;;;;;14.65;11.25;;;;;;;8.32;100.00;95211.38;1024300;28;20153;-68
2021/04/30 01:28:07;;;;;;;15.60;12.43;;;;;;;8.28;100.00;95211.09;1018901;29;20020;-69
2021/04/30 01:28:37;;;;;;;17.95;12.65;;;;;;;8.27;100.00;95209.53;1019347;29;20039;-69
2021/04/30 01:29:08;;;;;;;18.15;13.30;;;;;;;8.27;100.00;95212.16;1013184;29;20268;-68
2021/04/30 01:29:38;;;;;;;22.80;13.25;;;;;;;8.28;100.00;95213.72;1019786;28;20028;-69
2021/04/30 01:30:19;;;;;;;15.80;12.60;;;;;;;8.28;100.00;95203.25;1024240;28;20027;-70
2021/04/30 01:30:50;;;;;;;22.92;13.70;;;;;;;8.28;100.00;95211.09;1021061;29;20413;-69
2021/04/30 01:31:20;;;;;;;16.90;12.75;;;;;;;8.29;100.00;95210.06;1018624;29;20275;-68
2021/04/30 01:31:50;;;;;;;15.73;12.85;;;;;;;8.30;100.00;95213.47;1024630;28;20059;-69
2021/04/30 01:32:21;;;;;;;17.88;12.63;;;;;;;8.29;100.00;95214.53;1027589;28;20449;-69
2021/04/30 01:32:51;;;;;;;18.88;13.98;;;;;;;8.28;100.00;95213.72;1027533;28;20045;-69
2021/04/30 01:33:22;;;;;;;19.80;13.75;;;;;;;8.31;100.00;95215.03;1021990;28;20027;-69
2021/04/30 01:33:56;;;;;;;16.00;13.95;;;;;;;8.30;100.00;95216.88;1022054;29;20019;-69
2021/04/30 01:34:27;;;;;;;18.88;12.95;;;;;;;8.30;100.00;95210.84;1024619;28;20031;-69
2021/04/30 01:34:57;;;;;;;20.67;13.25;;;;;;;8.30;100.00;95205.63;1023624;28;20338;-69
2021/04/30 01:35:32;;;;;;;15.40;13.60;;;;;;;8.23;100.00;95195.44;1022573;29;20027;-69
2021/04/30 01:36:03;;;;;;;17.10;13.48;;;;;;;8.29;100.00;95210.06;1024063;29;20437;-69
2021/04/30 01:36:34;;;;;;;17.25;13.70;;;;;;;8.29;100.00;95204.84;1020072;29;20279;-68
2021/04/30 01:37:05;;;;;;;18.75;14.00;;;;;;;8.27;100.00;95207.69;1031571;28;20257;-69
2021/04/30 01:37:36;;;;;;;17.73;13.73;;;;;;;8.29;100.00;95211.91;1031242;28;20043;-69
2021/04/30 01:38:06;;;;;;;20.52;13.80;;;;;;;8.30;100.00;95209.03;1023435;29;20626;-68
2021/04/30 01:38:36;;;;;;;16.08;13.23;;;;;;;8.28;100.00;95208.47;1021788;28;20027;-69
2021/04/30 01:39:09;;;;;;;17.98;13.95;;;;;;;8.27;100.00;95201.69;1019708;29;20027;-68
2021/04/30 01:39:40;;;;;;;17.67;14.40;;;;;;;8.24;100.00;95203.00;1015259;29;20028;-69
2021/04/30 01:40:14;;;;;;;16.77;13.43;;;;;;;8.18;100.00;95198.03;1020406;28;20271;-69
2021/04/30 01:40:45;;;;;;;19.55;14.80;;;;;;;8.26;100.00;95205.38;1026817;28;20783;-69
2021/04/30 01:41:19;;;;;;;20.85;15.38;;;;;;;8.25;100.00;95204.59;1028520;28;20274;-68
2021/04/30 01:41:50;;;;;;;17.60;14.25;;;;;;;8.23;100.00;95206.66;1024522;28;20034;-68
2021/04/30 01:42:20;;;;;;;19.48;14.45;;;;;;;8.24;100.00;95200.38;1023182;28;20267;-68
2021/04/30 01:43:15;;;;;;;17.00;13.82;;;;;;;8.25;100.00;95203.81;1023870;28;20023;-68
2021/04/30 01:43:45;;;;;;;20.70;14.38;;;;;;;8.23;100.00;95208.50;1022753;28;20036;-69
2021/04/30 01:44:15;;;;;;;17.45;14.68;;;;;;;8.24;100.00;95210.06;1031894;28;20265;-69
2021/04/30 01:44:48;;;;;;;18.85;14.25;;;;;;;8.23;100.00;95214.50;1033684;28;20022;-71
2021/04/30 01:45:19;;;;;;;17.20;14.25;;;;;;;8.22;100.00;95212.94;1029600;28;20062;-68
2021/04/30 01:45:55;;;;;;;18.63;14.93;;;;;;;8.15;100.00;95195.94;1032166;28;20269;-68
2021/04/30 01:46:26;;;;;;;18.05;14.65;;;;;;;8.21;100.00;95207.97;1023759;28;20059;-70
2021/04/30 01:46:58;;;;;;;17.45;15.02;;;;;;;8.15;100.00;95203.75;1021793;29;20314;-68
2021/04/30 01:47:28;;;;;;;18.25;14.48;;;;;;;8.19;100.00;95210.84;1023912;28;20023;-68
2021/04/30 01:47:59;;;;;;;18.77;15.32;;;;;;;8.16;100.00;95207.97;1019118;29;20271;-69
2021/04/30 01:48:30;;;;;;;17.65;14.35;;;;;;;8.19;100.00;95205.63;1015870;29;20020;-68
2021/04/30 01:49:00;;;;;;;19.15;14.90;;;;;;;8.20;100.00;95211.63;1018870;29;20028;-67
2021/04/30 01:49:31;;;;;;;20.05;15.50;;;;;;;8.21;100.00;95206.13;1015855;29;20398;-69
2021/04/30 01:50:01;;;;;;;16.58;14.10;;;;;;;8.17;100.00;95207.69;1018925;29;20027;-68
2021/04/30 01:50:32;;;;;;;18.58;14.88;;;;;;;8.18;100.00;95208.47;1018913;29;20383;-68
2021/04/30 01:51:03;;;;;;;18.92;14.90;;;;;;;8.16;100.00;95200.91;1023490;28;20047;-69
2021/04/30 01:51:35;;;;;;;18.55;14.93;;;;;;;8.12;100.00;95202.47;1023113;28;20035;-68
2021/04/30 01:52:05;;;;;;;16.17;14.23;;;;;;;8.16;100.00;95210.59;1018715;29;20264;-69
2021/04/30 01:52:36;;;;;;;18.55;15.43;;;;;;;8.17;100.00;95207.69;1018468;29;20282;-68
2021/04/30 01:53:07;;;;;;;16.83;14.85;;;;;;;8.18;100.00;95208.47;1019461;29;20024;-69
2021/04/30 01:53:38;;;;;;;19.63;15.43;;;;;;;8.18;100.00;95211.09;1024149;28;20030;-68
2021/04/30 01:54:08;;;;;;;17.40;15.38;;;;;;;8.16;100.00;95208.75;1030701;28;20292;-69
2021/04/30 01:54:40;;;;;;;20.33;15.80;;;;;;;8.15;100.00;95212.41;1030939;28;20022;-69
2021/04/30 01:55:11;;;;;;;20.90;15.73;;;;;;;8.14;100.00;95208.22;1026398;28;20579;-69
2021/04/30 01:55:41;;;;;;;20.85;16.98;;;;;;;8.13;100.00;95206.66;1022371;29;20366;-68
2021/04/30 01:56:12;;;;;;;20.95;15.38;;;;;;;8.15;100.00;95201.97;1015379;29;20016;-70
2021/04/30 01:56:42;;;;;;;20.02;14.68;;;;;;;8.14;100.00;95203.00;1015015;29;20020;-69
2021/04/30 01:57:13;;;;;;;21.63;15.57;;;;;;;8.15;100.00;95204.56;1015179;29;20012;-69
2021/04/30 01:57:47;;;;;;;21.92;15.68;;;;;;;8.08;100.00;95198.81;1019478;29;20020;-68
2021/04/30 01:58:17;;;;;;;18.17;15.15;;;;;;;8.13;100.00;95203.25;1024202;28;20058;-67
2021/04/30 01:58:48;;;;;;;18.48;15.73;;;;;;;8.12;100.00;95204.31;1026987;28;20274;-68
2021/04/30 01:59:18;;;;;;;18.75;16.58;;;;;;;8.09;100.00;95203.00;1023375;29;20059;-69
2021/04/30 01:59:49;;;;;;;22.17;16.58;;;;;;;8.11;100.00;95207.94;1022873;29;20027;-68
2021/04/30 02:00:23;;;;;;;22.70;16.17;;;;;;;8.10;100.00;95209.78;1022610;28;20108;-68
2021/04/30 02:00:55;;;;;;;19.52;16.25;;;;;;;8.10;100.00;95204.56;1023574;28;20119;-68
2021/04/30 02:01:25;;;;;;;24.50;17.45;;;;;;;8.13;100.00;95206.66;1027017;28;20304;-68
2021/04/30 02:01:56;;;;;;;17.58;14.80;;;;;;;8.11;100.00;95211.34;1026091;28;20292;-68
2021/04/30 02:02:26;;;;;;;19.52;16.85;;;;;;;8.12;100.00;95207.72;1024218;28;20039;-69
2021/04/30 02:02:57;;;;;;;21.38;16.63;;;;;;;8.13;100.00;95211.88;1022997;28;20027;-69
2021/04/30 02:03:27;;;;;;;19.02;16.60;;;;;;;8.12;100.00;95212.94;1022886;28;20038;-67
2021/04/30 02:03:59;;;;;;;21.38;17.80;;;;;;;8.12;100.00;95215.53;1022978;29;20278;-68
2021/04/30 02:04:29;;;;;;;22.05;16.50;;;;;;;8.10;100.00;95215.00;1023137;29;20035;-68
2021/04/30 02:04:59;;;;;;;21.27;16.85;;;;;;;8.10;100.00;95212.41;1022768;28;20274;-69
2021/04/30 02:05:31;;;;;;;19.98;16.77;;;;;;;8.12;100.00;95214.75;1022667;28;20039;-68
2021/04/30 02:06:01;;;;;;;20.77;17.48;;;;;;;8.13;100.00;95222.34;1023694;28;20031;-68
2021/04/30 02:06:32;;;;;;;19.52;17.15;;;;;;;8.12;100.00;95220.00;1030723;28;20368;-68
2021/04/30 02:07:02;;;;;;;23.90;18.48;;;;;;;8.09;100.00;95221.28;1033694;28;20026;-68
2021/04/30 02:07:33;;;;;;;20.58;17.80;;;;;;;8.07;100.00;95228.59;1023011;28;20039;-69
2021/04/30 02:08:07;;;;;;;22.02;18.13;;;;;;;8.03;100.00;95219.69;1022942;29;20043;-68
2021/04/30 02:08:38;;;;;;;25.45;17.50;;;;;;;8.06;100.00;95229.66;1021109;29;20624;-68
2021/04/30 02:09:08;;;;;;;22.83;17.98;;;;;;;8.07;100.00;95228.59;1020773;28;20275;-68
2021/04/30 02:09:39;;;;;;;22.30;18.20;;;;;;;8.07;100.00;95233.81;1027245;28;20027;-70
2021/04/30 02:10:17;;;;;;;23.80;18.77;;;;;;;8.05;100.00;95222.84;1019898;28;20011;-69
2021/04/30 02:10:48;;;;;;;23.95;18.23;;;;;;;8.02;100.00;95237.22;1026785;28;20583;-68
2021/04/30 02:11:18;;;;;;;24.40;18.58;;;;;;;8.02;100.00;95231.22;1023040;28;20266;-68
2021/04/30 02:11:49;;;;;;;25.85;18.90;;;;;;;8.03;100.00;95235.38;1022986;28;20070;-69
2021/04/30 02:12:23;;;;;;;23.58;19.40;;;;;;;8.04;100.00;95229.09;1023147;29;20540;-68
2021/04/30 02:12:54;;;;;;;25.85;19.65;;;;;;;7.98;100.00;95220.50;1022662;29;20050;-68
2021/04/30 02:13:24;;;;;;;24.67;18.77;;;;;;;7.94;100.00;95211.56;1019051;29;21054;-68
2021/04/30 02:13:54;;;;;;;24.20;19.45;;;;;;;8.03;100.00;95224.94;1015161;29;20092;-69
2021/04/30 02:14:25;;;;;;;27.77;19.67;;;;;;;8.02;100.00;95224.16;1015083;29;20462;-69
2021/04/30 02:14:55;;;;;;;24.42;19.70;;;;;;;7.96;100.00;95213.94;1015299;29;20036;-68
2021/04/30 02:15:37;;;;;;;25.35;20.88;;;;;;;8.04;100.00;95226.50;1014991;29;20028;-68
2021/04/30 02:16:08;;;;;;;25.60;20.15;;;;;;;7.98;100.00;95223.09;1018788;29;20034;-68
2021/04/30 02:16:38;;;;;;;25.23;20.60;;;;;;;7.98;100.00;95230.13;1023223;29;20293;-69
2021/04/30 02:17:09;;;;;;;26.88;22.05;;;;;;;7.98;100.00;95227.53;1027470;28;20035;-68
2021/04/30 02:17:39;;;;;;;26.95;22.52;;;;;;;7.97;100.00;95233.78;1031169;28;20022;-67
2021/04/30 02:18:10;;;;;;;27.10;21.58;;;;;;;7.98;100.00;95227.53;1034794;28;20077;-68
2021/04/30 02:18:40;;;;;;;27.17;21.75;;;;;;;7.98;100.00;95230.13;1023582;28;20806;-68
2021/04/30 02:19:11;;;;;;;30.05;21.73;;;;;;;7.93;100.00;95228.31;1018810;29;20028;-68
2021/04/30 02:19:41;;;;;;;31.98;22.48;;;;;;;7.93;100.00;95228.31;1016858;29;20032;-68
2021/04/30 02:20:12;;;;;;;24.65;21.13;;;;;;;7.88;100.00;95219.66;1019158;28;20508;-68
2021/04/30 02:20:43;;;;;;;29.70;22.65;;;;;;;7.87;100.00;95223.31;1027032;28;20113;-68
2021/04/30 02:21:13;;;;;;;30.38;22.88;;;;;;;7.93;100.00;95227.53;1022966;28;20274;-68
2021/04/30 02:21:44;;;;;;;28.63;22.52;;;;;;;7.94;100.00;95227.25;1018940;29;20027;-68
2021/04/30 02:22:14;;;;;;;25.92;22.38;;;;;;;7.93;100.00;95222.28;1013074;29;20032;-68
2021/04/30 02:22:45;;;;;;;28.48;21.85;;;;;;;7.87;100.00;95210.25;1015275;29;20028;-68
2021/04/30 02:23:15;;;;;;;25.95;21.45;;;;;;;7.92;100.00;95220.75;1026914;28;20022;-69
2021/04/30 02:23:46;;;;;;;27.55;21.83;;;;;;;7.92;100.00;95223.34;1026920;28;20031;-72
2021/04/30 02:24:16;;;;;;;23.67;20.55;;;;;;;7.89;100.00;95221.25;1024905;28;20090;-68